TimeCDT,TemperatureF,Dew PointF,Humidity,Sea Level PressureIn,VisibilityMPH,Wind Direction,Wind SpeedMPH,Gust SpeedMPH,PrecipitationIn,Events,Conditions,WindDirDegrees,DateUTC
12:54 AM,59.0,52.0,78,30.08,10.0,Calm,Calm,-,N/A,,Clear,0,2011-10-26 05:54:00
1:54 AM,60.1,53.1,78,30.07,10.0,Calm,Calm,-,N/A,,Clear,0,2011-10-26 06:54:00
2:54 AM,55.0,52.0,89,30.06,10.0,Calm,Calm,-,N/A,,Clear,0,2011-10-26 07:54:00
3:54 AM,53.1,51.1,93,30.06,10.0,Calm,Calm,-,N/A,,Partly Cloudy,0,2011-10-26 08:54:00
4:54 AM,51.1,50.0,96,30.06,6.0,Calm,Calm,-,N/A,,Partly Cloudy,0,2011-10-26 09:54:00
5:54 AM,51.1,50.0,96,30.07,7.0,Calm,Calm,-,N/A,,Partly Cloudy,0,2011-10-26 10:54:00
6:21 AM,50.0,48.2,94,30.07,7.0,Calm,Calm,-,N/A,,Partly Cloudy,0,2011-10-26 11:21:00
6:54 AM,50.0,48.9,96,30.07,7.0,Calm,Calm,-,N/A,,Partly Cloudy,0,2011-10-26 11:54:00
7:54 AM,51.1,48.9,92,30.07,7.0,Calm,Calm,-,N/A,,Clear,0,2011-10-26 12:54:00
8:54 AM,62.1,55.9,80,30.09,10.0,Calm,Calm,-,N/A,,Clear,0,2011-10-26 13:54:00
9:54 AM,68.0,55.9,65,30.08,10.0,South,6.9,-,N/A,,Clear,180,2011-10-26 14:54:00
10:54 AM,73.0,57.0,57,30.08,10.0,Variable,4.6,-,N/A,,Clear,0,2011-10-26 15:54:00
11:54 AM,75.0,54.0,48,30.06,10.0,Variable,6.9,-,N/A,,Partly Cloudy,0,2011-10-26 16:54:00
12:54 PM,77.0,54.0,45,30.02,10.0,Variable,4.6,-,N/A,,Clear,0,2011-10-26 17:54:00
1:54 PM,78.8,53.6,42,29.99,10.0,Variable,4.6,-,N/A,,Clear,0,2011-10-26 18:54:00
2:54 PM,80.1,48.9,34,29.96,10.0,SSE,8.1,-,N/A,,Clear,160,2011-10-26 19:54:00
3:54 PM,80.1,51.1,36,29.94,10.0,Variable,3.5,-,N/A,,Clear,0,2011-10-26 20:54:00
4:54 PM,79.0,50.0,36,29.93,10.0,Calm,Calm,-,N/A,,Clear,0,2011-10-26 21:54:00
5:54 PM,73.9,52.0,46,29.92,10.0,South,3.5,-,N/A,,Clear,170,2011-10-26 22:54:00
6:54 PM,66.2,53.6,64,29.93,10.0,SSE,6.9,-,N/A,,Clear,150,2011-10-26 23:54:00
7:54 PM,64.9,53.1,65,29.93,10.0,SSE,6.9,-,N/A,,Clear,150,2011-10-27 00:54:00
8:54 PM,64.0,54.0,70,29.93,10.0,SSE,5.8,-,N/A,,Clear,160,2011-10-27 01:54:00
9:54 PM,63.0,54.0,72,29.94,10.0,Calm,Calm,-,N/A,,Clear,0,2011-10-27 02:54:00
10:54 PM,62.6,53.6,72,29.95,10.0,South,3.5,-,N/A,,Clear,180,2011-10-27 03:54:00
11:54 PM,62.6,53.6,72,29.94,10.0,South,5.8,-,N/A,,Clear,170,2011-10-27 04:54:00